Time;durP1;ratioP1;P1;durP2;ratioP2;P2;SDS_P1;SDS_P2;PMS_P1;PMS_P2;Temp;Humidity;BMP_temperature;BMP_pressure;BME280_temperature;BME280_humidity;BME280_pressure;Samples;Min_cycle;Max_cycle;Signal;HPM_P1;HPM_P2
2023/12/31 00:00:08;;;;;;;0.88;0.30;;;;;;;;;;5033900;28;20121;-96
2023/12/31 00:02:33;;;;;;;1.08;0.30;;;;;;;;;;5034471;28;20017;-92
2023/12/31 00:04:58;;;;;;;0.70;0.32;;;;;;;;;;5050104;28;20014;-94
2023/12/31 00:07:26;;;;;;;1.13;0.40;;;;;;;;;;5033724;28;20145;-86
2023/12/31 00:09:51;;;;;;;0.68;0.50;;;;;;;;;;5042869;28;20021;-93
2023/12/31 00:12:17;;;;;;;0.75;0.32;;;;;;;;;;5033024;28;20047;-92
2023/12/31 00:14:42;;;;;;;0.63;0.32;;;;;;;;;;5034373;28;20013;-87
2023/12/31 00:17:07;;;;;;;0.45;0.28;;;;;;;;;;5034274;28;20025;-87
2023/12/31 00:19:32;;;;;;;1.02;0.30;;;;;;;;;;5033958;28;20020;-95
2023/12/31 00:21:58;;;;;;;1.80;0.30;;;;;;;;;;5036878;28;20018;-87
2023/12/31 00:24:23;;;;;;;0.75;0.40;;;;;;;;;;5034278;28;20021;-86
2023/12/31 00:26:48;;;;;;;1.75;0.50;;;;;;;;;;5034743;28;20104;-91
2023/12/31 00:29:14;;;;;;;1.13;0.47;;;;;;;;;;5034783;28;20188;-86
2023/12/31 00:31:39;;;;;;;0.40;0.30;;;;;;;;;;5044197;28;20021;-94
2023/12/31 00:34:04;;;;;;;0.77;0.50;;;;;;;;;;5033968;28;20037;-96
2023/12/31 00:36:31;;;;;;;0.60;0.32;;;;;;;;;;5039586;28;20045;-86
2023/12/31 00:38:59;;;;;;;0.80;0.40;;;;;;;;;;5036516;28;20717;-94
2023/12/31 00:41:32;;;;;;;0.70;0.50;;;;;;;;;;5033653;28;20024;-93
2023/12/31 00:43:58;;;;;;;1.73;0.43;;;;;;;;;;5034902;28;20446;-91
2023/12/31 00:46:27;;;;;;;0.40;0.30;;;;;;;;;;5036273;28;20021;-91
2023/12/31 00:48:53;;;;;;;0.90;0.40;;;;;;;;;;5036777;28;20025;-91
2023/12/31 00:51:18;;;;;;;1.08;0.40;;;;;;;;;;5037447;28;20049;-96
2023/12/31 00:53:43;;;;;;;1.80;0.63;;;;;;;;;;5036846;28;20017;-95
2023/12/31 00:56:09;;;;;;;3.60;0.57;;;;;;;;;;5036314;28;20016;-86
2023/12/31 00:58:34;;;;;;;0.77;0.50;;;;;;;;;;5035159;28;20081;-89
2023/12/31 01:01:00;;;;;;;2.40;0.43;;;;;;;;;;5037372;28;20228;-96
2023/12/31 01:03:25;;;;;;;2.88;0.45;;;;;;;;;;5036357;28;20017;-91
2023/12/31 01:05:50;;;;;;;2.83;0.60;;;;;;;;;;5035143;28;20070;-95
2023/12/31 01:08:15;;;;;;;0.60;0.45;;;;;;;;;;5035849;28;20056;-86
2023/12/31 01:10:41;;;;;;;2.10;0.50;;;;;;;;;;5036118;28;20017;-87
2023/12/31 01:13:06;;;;;;;0.70;0.40;;;;;;;;;;5031163;28;20033;-93
2023/12/31 01:15:31;;;;;;;4.65;0.73;;;;;;;;;;5030864;28;20536;-95
2023/12/31 01:17:57;;;;;;;1.55;0.55;;;;;;;;;;5031994;28;20037;-95
2023/12/31 01:20:22;;;;;;;1.00;0.47;;;;;;;;;;5030711;28;20398;-94
2023/12/31 01:22:47;;;;;;;0.63;0.40;;;;;;;;;;5035044;28;20029;-87
2023/12/31 01:25:12;;;;;;;0.93;0.50;;;;;;;;;;5033709;28;20021;-95
2023/12/31 01:27:38;;;;;;;0.65;0.47;;;;;;;;;;5033482;28;20033;-90
2023/12/31 01:30:18;;;;;;;1.30;0.40;;;;;;;;;;5036273;28;20032;-91
2023/12/31 01:32:44;;;;;;;0.55;0.45;;;;;;;;;;5035668;28;20025;-86
2023/12/31 01:35:09;;;;;;;0.52;0.43;;;;;;;;;;5033859;28;20009;-96
2023/12/31 01:37:34;;;;;;;1.05;0.50;;;;;;;;;;5034700;28;20021;-92
2023/12/31 01:40:00;;;;;;;1.35;0.60;;;;;;;;;;5033815;28;20021;-93
2023/12/31 01:42:25;;;;;;;1.15;0.80;;;;;;;;;;5032042;28;20382;-94
2023/12/31 01:44:50;;;;;;;3.60;0.65;;;;;;;;;;5032729;28;20120;-87
2023/12/31 01:47:17;;;;;;;0.60;0.47;;;;;;;;;;5034105;28;20083;-96
2023/12/31 01:49:44;;;;;;;0.93;0.50;;;;;;;;;;5034352;28;20048;-96
2023/12/31 01:52:11;;;;;;;0.45;0.40;;;;;;;;;;5033885;28;20593;-96
2023/12/31 01:54:37;;;;;;;1.55;0.60;;;;;;;;;;5035539;28;20026;-86
2023/12/31 01:57:02;;;;;;;2.38;0.50;;;;;;;;;;5033609;28;20371;-94
2023/12/31 01:59:27;;;;;;;0.98;0.50;;;;;;;;;;5033377;28;20037;-94
2023/12/31 02:01:52;;;;;;;5.68;0.60;;;;;;;;;;5039353;28;20057;-91
2023/12/31 02:04:19;;;;;;;0.40;0.40;;;;;;;;;;5036153;28;20009;-86
2023/12/31 02:06:44;;;;;;;1.20;0.40;;;;;;;;;;5030264;28;20025;-86
2023/12/31 02:09:10;;;;;;;4.05;0.50;;;;;;;;;;5029783;28;20017;-93
2023/12/31 02:11:36;;;;;;;0.82;0.43;;;;;;;;;;5030174;28;20060;-86
2023/12/31 02:14:01;;;;;;;1.15;0.52;;;;;;;;;;5033723;28;20473;-86
2023/12/31 02:16:27;;;;;;;1.70;0.68;;;;;;;;;;5033963;28;20108;-86
2023/12/31 02:18:53;;;;;;;0.98;0.60;;;;;;;;;;5034623;28;20028;-96
2023/12/31 02:21:19;;;;;;;1.23;0.50;;;;;;;;;;5032790;28;20030;-85
2023/12/31 02:23:45;;;;;;;0.75;0.40;;;;;;;;;;5033896;28;20025;-93
2023/12/31 02:26:11;;;;;;;0.90;0.32;;;;;;;;;;5033683;28;20026;-96
2023/12/31 02:28:36;;;;;;;1.20;0.47;;;;;;;;;;5017506;28;20026;-94
2023/12/31 02:31:02;;;;;;;2.40;0.60;;;;;;;;;;5046933;28;20064;-93
2023/12/31 02:33:27;;;;;;;1.52;0.50;;;;;;;;;;5034733;28;20033;-92
2023/12/31 02:35:52;;;;;;;0.95;0.57;;;;;;;;;;5031580;28;20025;-95
2023/12/31 02:38:17;;;;;;;0.65;0.40;;;;;;;;;;5035137;28;20021;-93
2023/12/31 02:40:43;;;;;;;1.02;0.50;;;;;;;;;;5034479;28;20459;-96
2023/12/31 02:43:08;;;;;;;1.00;0.50;;;;;;;;;;5031533;28;20025;-94
2023/12/31 02:45:34;;;;;;;0.90;0.30;;;;;;;;;;5033605;28;20013;-90
2023/12/31 02:47:59;;;;;;;1.40;0.40;;;;;;;;;;5033399;28;20033;-95
2023/12/31 02:50:25;;;;;;;1.67;0.60;;;;;;;;;;5034164;28;20022;-95
2023/12/31 02:52:53;;;;;;;0.95;0.47;;;;;;;;;;5040019;28;20101;-93
2023/12/31 02:55:19;;;;;;;0.70;0.50;;;;;;;;;;5039216;28;20029;-96
2023/12/31 02:57:44;;;;;;;1.73;0.47;;;;;;;;;;5037249;28;20028;-93
2023/12/31 03:00:10;;;;;;;2.33;0.57;;;;;;;;;;5035479;28;20101;-96
2023/12/31 03:02:35;;;;;;;0.77;0.45;;;;;;;;;;5036459;28;20429;-94
2023/12/31 03:05:01;;;;;;;1.02;0.50;;;;;;;;;;5036333;28;20362;-95
2023/12/31 03:07:26;;;;;;;1.45;0.60;;;;;;;;;;5035287;28;20045;-93
2023/12/31 03:09:52;;;;;;;1.50;0.73;;;;;;;;;;5034542;28;20117;-90
2023/12/31 03:12:18;;;;;;;1.35;0.50;;;;;;;;;;5039544;28;20382;-94
2023/12/31 03:14:43;;;;;;;4.10;0.50;;;;;;;;;;5037090;28;20017;-94
2023/12/31 03:17:09;;;;;;;4.43;0.70;;;;;;;;;;5034546;28;20029;-94
2023/12/31 03:19:35;;;;;;;1.27;0.80;;;;;;;;;;5035818;28;20474;-89
2023/12/31 03:22:01;;;;;;;1.00;0.60;;;;;;;;;;5051390;28;20109;-86
2023/12/31 03:24:27;;;;;;;1.67;0.52;;;;;;;;;;5035646;28;20049;-87
2023/12/31 03:26:52;;;;;;;1.23;0.50;;;;;;;;;;5033516;28;20037;-87
2023/12/31 03:29:17;;;;;;;1.38;0.57;;;;;;;;;;5033022;28;20022;-86
2023/12/31 03:31:42;;;;;;;0.52;0.45;;;;;;;;;;5032661;28;20025;-94
2023/12/31 03:34:08;;;;;;;1.67;0.60;;;;;;;;;;5033609;28;20041;-88
2023/12/31 03:36:33;;;;;;;0.77;0.47;;;;;;;;;;5033948;28;20013;-87
2023/12/31 03:38:59;;;;;;;1.13;0.40;;;;;;;;;;5034864;28;20072;-95
2023/12/31 03:41:24;;;;;;;1.10;0.60;;;;;;;;;;5033424;28;20105;-86
2023/12/31 03:43:49;;;;;;;2.97;0.60;;;;;;;;;;5033370;28;20049;-95
2023/12/31 03:46:14;;;;;;;2.50;0.90;;;;;;;;;;5034377;28;20017;-86
2023/12/31 03:48:40;;;;;;;2.00;0.75;;;;;;;;;;5033953;28;20064;-86
2023/12/31 03:51:05;;;;;;;2.35;0.65;;;;;;;;;;5032619;28;20017;-96
2023/12/31 03:53:30;;;;;;;2.30;0.70;;;;;;;;;;5035051;28;20029;-92
2023/12/31 03:55:55;;;;;;;1.05;0.65;;;;;;;;;;5033382;28;20096;-89
2023/12/31 03:58:22;;;;;;;0.50;0.40;;;;;;;;;;5032781;28;20167;-94
2023/12/31 04:00:48;;;;;;;1.33;0.60;;;;;;;;;;5035811;28;20021;-90
2023/12/31 04:03:13;;;;;;;1.27;0.60;;;;;;;;;;5033545;28;20071;-96
2023/12/31 04:05:38;;;;;;;1.75;0.60;;;;;;;;;;5033264;28;20018;-95
2023/12/31 04:08:04;;;;;;;0.65;0.50;;;;;;;;;;5033935;28;20029;-93
2023/12/31 04:10:29;;;;;;;1.33;0.60;;;;;;;;;;5034867;28;20421;-94
2023/12/31 04:12:54;;;;;;;2.75;0.70;;;;;;;;;;5034493;28;20031;-95
2023/12/31 04:15:19;;;;;;;2.30;0.80;;;;;;;;;;5033699;28;20072;-96
2023/12/31 04:17:45;;;;;;;2.05;0.80;;;;;;;;;;5034933;28;20483;-86
2023/12/31 04:20:10;;;;;;;2.40;1.55;;;;;;;;;;5032566;28;20032;-91
2023/12/31 04:22:35;;;;;;;1.35;0.77;;;;;;;;;;5034530;28;20132;-91
2023/12/31 04:25:01;;;;;;;0.88;0.50;;;;;;;;;;5034661;28;20040;-90
2023/12/31 04:27:27;;;;;;;3.25;0.82;;;;;;;;;;5037303;28;20029;-92
2023/12/31 04:29:52;;;;;;;1.40;0.57;;;;;;;;;;5032634;28;20100;-87
2023/12/31 04:32:17;;;;;;;1.70;0.65;;;;;;;;;;5032988;28;20075;-96
2023/12/31 04:34:42;;;;;;;1.30;0.80;;;;;;;;;;5034296;28;20009;-95
2023/12/31 04:37:07;;;;;;;1.55;0.70;;;;;;;;;;5033465;28;20061;-93
2023/12/31 04:39:33;;;;;;;0.93;0.65;;;;;;;;;;5021710;28;20013;-86
2023/12/31 04:41:58;;;;;;;0.98;0.55;;;;;;;;;;5042916;28;20030;-90
2023/12/31 04:44:23;;;;;;;1.67;0.60;;;;;;;;;;5032835;28;20025;-92
2023/12/31 04:46:48;;;;;;;1.15;0.50;;;;;;;;;;5032348;28;20121;-95
2023/12/31 04:49:14;;;;;;;1.38;0.70;;;;;;;;;;5033362;28;20527;-86
2023/12/31 04:51:39;;;;;;;1.35;0.60;;;;;;;;;;5032638;28;20421;-93
2023/12/31 04:54:04;;;;;;;1.05;0.55;;;;;;;;;;5035369;28;20489;-87
2023/12/31 04:56:30;;;;;;;1.42;0.60;;;;;;;;;;5039824;28;20040;-91
2023/12/31 04:58:55;;;;;;;2.35;0.88;;;;;;;;;;5031844;28;20017;-94
2023/12/31 05:01:22;;;;;;;0.95;0.55;;;;;;;;;;5031224;28;20401;-90
2023/12/31 05:03:48;;;;;;;1.13;0.52;;;;;;;;;;5031659;28;20018;-95
2023/12/31 05:06:13;;;;;;;2.45;0.77;;;;;;;;;;5031255;28;20485;-89
2023/12/31 05:08:45;;;;;;;1.48;0.88;;;;;;;;;;5030747;28;20060;-90
2023/12/31 05:11:11;;;;;;;2.35;0.85;;;;;;;;;;5031727;28;20017;-86
2023/12/31 05:13:39;;;;;;;1.02;0.73;;;;;;;;;;5031195;28;20097;-96
2023/12/31 05:16:08;;;;;;;1.50;0.80;;;;;;;;;;5031989;28;20017;-86
2023/12/31 05:18:33;;;;;;;1.75;0.70;;;;;;;;;;5031519;28;20067;-93
2023/12/31 05:20:59;;;;;;;2.00;0.95;;;;;;;;;;5030725;28;20025;-96
2023/12/31 05:23:24;;;;;;;0.98;0.60;;;;;;;;;;5038268;28;20018;-96
2023/12/31 05:25:50;;;;;;;1.08;0.80;;;;;;;;;;5031552;28;20482;-96
2023/12/31 05:28:15;;;;;;;2.47;1.00;;;;;;;;;;5030808;28;20029;-94
2023/12/31 05:30:41;;;;;;;1.17;0.70;;;;;;;;;;5031067;28;20013;-96
2023/12/31 05:33:07;;;;;;;1.35;0.80;;;;;;;;;;5031474;28;20160;-87
2023/12/31 05:35:32;;;;;;;1.52;0.85;;;;;;;;;;5032634;28;20025;-93
2023/12/31 05:37:57;;;;;;;1.60;0.73;;;;;;;;;;5032403;28;20100;-92
2023/12/31 05:40:22;;;;;;;1.35;0.80;;;;;;;;;;5032008;28;20098;-93
2023/12/31 05:42:47;;;;;;;1.52;0.80;;;;;;;;;;5036474;28;20018;-95
2023/12/31 05:45:13;;;;;;;1.48;0.73;;;;;;;;;;5045523;28;20378;-96
2023/12/31 05:47:38;;;;;;;1.20;0.75;;;;;;;;;;5041283;28;20029;-96
2023/12/31 05:50:03;;;;;;;1.13;0.63;;;;;;;;;;5031143;28;20053;-95
2023/12/31 05:52:29;;;;;;;1.00;0.60;;;;;;;;;;5032328;28;20034;-96
2023/12/31 05:54:54;;;;;;;1.08;0.80;;;;;;;;;;5030705;28;20382;-87
2023/12/31 05:57:19;;;;;;;1.50;0.90;;;;;;;;;;5029345;28;20375;-86
2023/12/31 05:59:44;;;;;;;2.00;1.00;;;;;;;;;;5029003;28;20021;-92
2023/12/31 06:02:09;;;;;;;1.73;0.85;;;;;;;;;;5034479;28;20497;-86
2023/12/31 06:04:35;;;;;;;1.88;0.90;;;;;;;;;;5039871;28;20540;-86
2023/12/31 06:07:00;;;;;;;1.92;0.90;;;;;;;;;;5030120;28;20120;-94
2023/12/31 06:09:26;;;;;;;1.67;1.02;;;;;;;;;;5029625;28;20014;-92
2023/12/31 06:11:52;;;;;;;1.42;0.90;;;;;;;;;;5029711;28;20462;-95
2023/12/31 06:14:17;;;;;;;2.67;0.73;;;;;;;;;;5029723;28;20108;-87
2023/12/31 06:16:42;;;;;;;2.00;0.98;;;;;;;;;;5039094;28;20390;-91
2023/12/31 06:19:07;;;;;;;1.63;0.98;;;;;;;;;;5029579;28;20390;-86
2023/12/31 06:21:33;;;;;;;1.92;0.80;;;;;;;;;;5030284;28;20074;-96
2023/12/31 06:23:58;;;;;;;1.38;0.75;;;;;;;;;;5032950;28;20021;-90
2023/12/31 06:26:23;;;;;;;2.33;1.00;;;;;;;;;;5029625;28;20017;-95
2023/12/31 06:28:48;;;;;;;1.15;0.80;;;;;;;;;;5031681;28;20419;-93
2023/12/31 06:31:14;;;;;;;1.95;1.05;;;;;;;;;;5034003;28;20083;-88
2023/12/31 06:33:39;;;;;;;1.25;0.88;;;;;;;;;;5035403;28;20071;-92
2023/12/31 06:36:04;;;;;;;1.35;0.80;;;;;;;;;;5042827;28;20537;-88
2023/12/31 06:38:29;;;;;;;4.05;1.00;;;;;;;;;;5034942;28;20017;-94
2023/12/31 06:40:55;;;;;;;1.17;0.80;;;;;;;;;;5033233;28;20022;-93
2023/12/31 06:43:20;;;;;;;1.02;0.75;;;;;;;;;;5034914;28;20041;-94
2023/12/31 06:45:46;;;;;;;1.63;0.88;;;;;;;;;;5035008;28;20057;-92
2023/12/31 06:48:11;;;;;;;1.42;0.93;;;;;;;;;;5034734;28;20099;-94
2023/12/31 06:50:36;;;;;;;1.52;0.80;;;;;;;;;;5028137;28;20026;-94
2023/12/31 06:53:02;;;;;;;1.92;0.98;;;;;;;;;;5036984;28;20032;-93
2023/12/31 06:55:28;;;;;;;1.40;0.82;;;;;;;;;;5037333;28;20032;-94
2023/12/31 06:57:53;;;;;;;1.73;0.90;;;;;;;;;;5037531;28;20021;-92
2023/12/31 07:00:18;;;;;;;1.92;0.90;;;;;;;;;;5032971;28;20624;-96
2023/12/31 07:02:43;;;;;;;2.70;1.10;;;;;;;;;;5033541;28;20029;-95
2023/12/31 07:05:09;;;;;;;1.10;0.80;;;;;;;;;;5033162;28;20017;-96
2023/12/31 07:07:34;;;;;;;2.75;0.90;;;;;;;;;;5034988;28;20037;-92
2023/12/31 07:10:00;;;;;;;2.10;1.08;;;;;;;;;;5033234;28;20034;-94
2023/12/31 07:12:25;;;;;;;1.30;0.80;;;;;;;;;;5034089;28;20024;-93
2023/12/31 07:14:50;;;;;;;1.75;0.70;;;;;;;;;;5034265;28;20037;-95
2023/12/31 07:17:15;;;;;;;1.67;1.00;;;;;;;;;;5032931;28;20033;-86
2023/12/31 07:19:41;;;;;;;1.30;0.80;;;;;;;;;;5042296;28;20501;-95
2023/12/31 07:22:06;;;;;;;1.75;0.98;;;;;;;;;;5043199;28;20119;-95
2023/12/31 07:24:32;;;;;;;1.70;1.17;;;;;;;;;;5055555;28;20039;-87
2023/12/31 07:26:58;;;;;;;1.65;1.00;;;;;;;;;;5032253;28;20041;-90
2023/12/31 07:29:23;;;;;;;1.45;0.85;;;;;;;;;;5032660;28;20021;-86
2023/12/31 07:31:48;;;;;;;1.42;0.80;;;;;;;;;;5042080;28;20108;-94
2023/12/31 07:34:15;;;;;;;2.00;0.80;;;;;;;;;;5032504;28;20029;-95
2023/12/31 07:36:40;;;;;;;2.42;0.90;;;;;;;;;;5035900;28;20033;-86
2023/12/31 07:39:06;;;;;;;1.65;0.93;;;;;;;;;;5033989;28;20052;-96
2023/12/31 07:41:31;;;;;;;1.40;0.82;;;;;;;;;;5031755;28;20469;-94
2023/12/31 07:43:57;;;;;;;2.63;1.00;;;;;;;;;;5033016;28;20029;-95
2023/12/31 07:46:23;;;;;;;2.17;1.10;;;;;;;;;;5032656;28;20108;-93
2023/12/31 07:48:48;;;;;;;2.67;0.90;;;;;;;;;;5035983;28;20112;-91
2023/12/31 07:51:13;;;;;;;1.30;0.90;;;;;;;;;;5041668;28;20075;-90
2023/12/31 07:53:38;;;;;;;1.48;0.88;;;;;;;;;;5034069;28;20532;-91
2023/12/31 07:56:04;;;;;;;1.90;0.90;;;;;;;;;;5033724;28;20025;-95
2023/12/31 07:58:31;;;;;;;2.03;0.77;;;;;;;;;;5032529;28;20067;-93
2023/12/31 08:00:58;;;;;;;1.73;0.85;;;;;;;;;;5031571;28;20029;-91
2023/12/31 08:03:24;;;;;;;1.15;0.70;;;;;;;;;;5026709;28;20084;-87
2023/12/31 08:05:50;;;;;;;1.52;0.80;;;;;;;;;;5028155;28;20022;-91
2023/12/31 08:08:15;;;;;;;1.42;0.60;;;;;;;;;;5031557;28;20052;-91
2023/12/31 08:10:41;;;;;;;1.40;0.80;;;;;;;;;;5036519;28;20475;-89
2023/12/31 08:13:09;;;;;;;1.35;0.80;;;;;;;;;;5032197;28;20009;-90
2023/12/31 08:15:35;;;;;;;1.60;0.70;;;;;;;;;;5030812;28;20382;-95
2023/12/31 08:18:00;;;;;;;1.60;0.73;;;;;;;;;;5025867;28;20025;-89
2023/12/31 08:20:25;;;;;;;1.30;0.60;;;;;;;;;;5029559;28;20170;-85
2023/12/31 08:22:52;;;;;;;1.23;0.68;;;;;;;;;;5033880;28;20017;-88
2023/12/31 08:25:18;;;;;;;1.00;0.70;;;;;;;;;;5026504;28;20056;-91
2023/12/31 08:27:43;;;;;;;2.42;0.80;;;;;;;;;;5029351;28;20038;-85
2023/12/31 08:30:08;;;;;;;1.10;0.70;;;;;;;;;;5028277;28;20009;-86
2023/12/31 08:32:34;;;;;;;0.73;0.52;;;;;;;;;;5025903;28;20112;-96
2023/12/31 08:34:59;;;;;;;1.50;0.90;;;;;;;;;;5030309;28;20021;-86
2023/12/31 08:37:25;;;;;;;1.33;0.70;;;;;;;;;;5029702;28;20030;-87
2023/12/31 08:39:50;;;;;;;1.35;0.80;;;;;;;;;;5047733;28;20029;-95
2023/12/31 08:42:15;;;;;;;1.00;0.50;;;;;;;;;;5037641;28;20108;-86
2023/12/31 08:44:40;;;;;;;1.77;0.77;;;;;;;;;;5031470;28;20057;-93
2023/12/31 08:47:06;;;;;;;1.10;0.63;;;;;;;;;;5031384;28;20036;-95
2023/12/31 08:49:31;;;;;;;1.73;0.70;;;;;;;;;;5032259;28;20032;-88
2023/12/31 08:51:56;;;;;;;0.70;0.47;;;;;;;;;;5033518;28;20132;-91
2023/12/31 08:54:21;;;;;;;0.82;0.50;;;;;;;;;;5030970;28;20022;-85
2023/12/31 08:56:47;;;;;;;1.20;0.60;;;;;;;;;;5031325;28;20029;-93
2023/12/31 08:59:12;;;;;;;1.00;0.52;;;;;;;;;;5029182;28;20055;-86
2023/12/31 09:01:38;;;;;;;2.35;0.63;;;;;;;;;;5026856;28;20029;-95
2023/12/31 09:04:03;;;;;;;0.70;0.40;;;;;;;;;;5032113;28;20060;-95
2023/12/31 09:06:29;;;;;;;1.10;0.50;;;;;;;;;;5030058;28;20018;-94
2023/12/31 09:08:54;;;;;;;1.98;0.65;;;;;;;;;;5030500;28;20025;-88
2023/12/31 09:11:20;;;;;;;0.75;0.40;;;;;;;;;;5031401;28;20013;-96
2023/12/31 09:13:45;;;;;;;0.93;0.60;;;;;;;;;;5031697;28;20433;-96
2023/12/31 09:16:10;;;;;;;2.20;0.50;;;;;;;;;;5031326;28;20507;-96
2023/12/31 09:18:36;;;;;;;1.40;0.70;;;;;;;;;;5026650;28;20013;-96
2023/12/31 09:21:01;;;;;;;1.95;0.60;;;;;;;;;;5031132;28;20032;-95
2023/12/31 09:23:27;;;;;;;1.25;0.50;;;;;;;;;;5036195;28;20018;-91
2023/12/31 09:25:53;;;;;;;0.95;0.60;;;;;;;;;;5031813;28;20124;-95
2023/12/31 09:28:19;;;;;;;0.65;0.40;;;;;;;;;;5030926;28;20099;-95
2023/12/31 09:30:44;;;;;;;2.05;0.52;;;;;;;;;;5031424;28;20147;-92
2023/12/31 09:33:09;;;;;;;0.50;0.40;;;;;;;;;;5030481;28;20026;-96
2023/12/31 09:35:35;;;;;;;1.33;0.57;;;;;;;;;;5014257;28;20576;-96
2023/12/31 09:38:00;;;;;;;1.48;0.55;;;;;;;;;;5031493;28;20021;-92
2023/12/31 09:40:25;;;;;;;2.92;0.65;;;;;;;;;;5030427;28;20017;-95
2023/12/31 09:42:50;;;;;;;0.90;0.47;;;;;;;;;;5030599;28;20049;-93
2023/12/31 09:45:21;;;;;;;1.73;0.50;;;;;;;;;;5029234;28;20480;-94
2023/12/31 09:47:48;;;;;;;0.98;0.60;;;;;;;;;;5035474;28;20036;-86
2023/12/31 09:50:13;;;;;;;1.67;0.60;;;;;;;;;;5030031;28;20025;-87
2023/12/31 09:52:39;;;;;;;1.23;0.50;;;;;;;;;;5031169;28;20025;-96
2023/12/31 09:55:05;;;;;;;2.90;0.60;;;;;;;;;;5031466;28;20033;-93
2023/12/31 09:57:34;;;;;;;1.27;0.60;;;;;;;;;;5030453;28;20032;-93
2023/12/31 10:00:00;;;;;;;1.25;0.47;;;;;;;;;;5032488;28;20025;-93
2023/12/31 10:02:27;;;;;;;1.17;0.40;;;;;;;;;;5032149;28;20036;-96
2023/12/31 10:04:53;;;;;;;0.77;0.50;;;;;;;;;;5032510;28;20026;-96
2023/12/31 10:07:20;;;;;;;2.97;0.60;;;;;;;;;;5028053;28;20128;-95
2023/12/31 10:09:46;;;;;;;2.05;0.50;;;;;;;;;;5028118;28;20094;-95
2023/12/31 10:12:12;;;;;;;1.77;0.63;;;;;;;;;;5029038;28;20322;-95
2023/12/31 10:14:37;;;;;;;2.90;0.55;;;;;;;;;;5027177;28;20049;-96
2023/12/31 10:17:06;;;;;;;1.40;0.40;;;;;;;;;;5026754;28;20118;-96
2023/12/31 10:19:31;;;;;;;2.15;0.55;;;;;;;;;;5031504;28;20025;-94
2023/12/31 10:21:56;;;;;;;1.05;0.40;;;;;;;;;;5027302;28;20047;-95
2023/12/31 10:24:26;;;;;;;1.08;0.40;;;;;;;;;;5028963;28;20014;-95
2023/12/31 10:26:51;;;;;;;1.20;0.38;;;;;;;;;;5029160;28;20033;-95
2023/12/31 10:29:17;;;;;;;2.85;0.40;;;;;;;;;;5030216;28;20029;-95
2023/12/31 10:31:42;;;;;;;1.08;0.50;;;;;;;;;;5029968;28;20023;-95
2023/12/31 10:34:12;;;;;;;2.33;0.55;;;;;;;;;;5029587;28;20071;-96
2023/12/31 10:36:37;;;;;;;2.45;0.55;;;;;;;;;;5029409;28;20025;-96
2023/12/31 10:39:03;;;;;;;0.80;0.43;;;;;;;;;;5032754;28;20054;-95
2023/12/31 10:41:32;;;;;;;3.60;0.60;;;;;;;;;;5033158;28;20095;-95
2023/12/31 10:43:59;;;;;;;4.13;0.43;;;;;;;;;;5030221;28;20057;-94
2023/12/31 10:46:25;;;;;;;1.33;0.40;;;;;;;;;;5029483;28;20116;-95
2023/12/31 10:48:54;;;;;;;0.85;0.32;;;;;;;;;;5030263;28;20463;-96
2023/12/31 10:51:23;;;;;;;4.35;0.40;;;;;;;;;;5037936;28;20026;-95
2023/12/31 10:53:49;;;;;;;0.93;0.40;;;;;;;;;;5030278;28;20075;-95
2023/12/31 10:56:16;;;;;;;0.50;0.30;;;;;;;;;;5029486;28;20025;-94
2023/12/31 10:58:42;;;;;;;1.08;0.40;;;;;;;;;;5030227;28;20040;-95
2023/12/31 11:01:08;;;;;;;2.40;0.35;;;;;;;;;;5029778;28;20021;-95
2023/12/31 11:03:33;;;;;;;0.63;0.30;;;;;;;;;;5030680;28;20017;-94
2023/12/31 11:06:00;;;;;;;5.22;0.50;;;;;;;;;;5029092;28;20048;-96
2023/12/31 11:08:27;;;;;;;1.20;0.52;;;;;;;;;;5030264;28;20802;-94
2023/12/31 11:10:53;;;;;;;4.03;0.40;;;;;;;;;;5030713;28;20109;-95
2023/12/31 11:13:18;;;;;;;1.15;0.38;;;;;;;;;;5030020;28;20116;-95
2023/12/31 11:15:44;;;;;;;0.77;0.45;;;;;;;;;;5029781;28;20195;-95
2023/12/31 11:18:28;;;;;;;2.92;0.52;;;;;;;;;;5034071;28;20022;-94
2023/12/31 11:20:53;;;;;;;2.15;0.30;;;;;;;;;;5032490;28;20040;-96
2023/12/31 11:23:38;;;;;;;0.55;0.40;;;;;;;;;;5032794;28;20022;-95
2023/12/31 11:26:05;;;;;;;1.63;0.40;;;;;;;;;;5034201;28;20030;-95
2023/12/31 11:28:30;;;;;;;2.05;0.35;;;;;;;;;;5032503;28;20033;-95
2023/12/31 11:30:58;;;;;;;3.15;0.40;;;;;;;;;;5033138;28;20080;-94
2023/12/31 11:33:31;;;;;;;1.02;0.43;;;;;;;;;;5033039;28;20025;-96
2023/12/31 11:35:57;;;;;;;2.10;0.60;;;;;;;;;;5032044;28;20033;-95
2023/12/31 11:38:25;;;;;;;3.65;0.50;;;;;;;;;;5035341;28;20041;-96
2023/12/31 11:40:50;;;;;;;2.42;0.63;;;;;;;;;;5029710;28;20029;-96
2023/12/31 11:43:16;;;;;;;2.13;0.50;;;;;;;;;;5032214;28;20013;-95
2023/12/31 11:45:46;;;;;;;3.50;0.70;;;;;;;;;;5032664;28;20501;-94
2023/12/31 11:48:24;;;;;;;1.65;0.32;;;;;;;;;;5032504;28;20033;-96
2023/12/31 11:50:52;;;;;;;5.88;0.60;;;;;;;;;;5030488;28;20014;-94
2023/12/31 11:53:20;;;;;;;5.90;0.50;;;;;;;;;;5032307;28;20108;-95
2023/12/31 11:55:48;;;;;;;2.15;0.60;;;;;;;;;;5032503;28;20021;-96
2023/12/31 11:58:14;;;;;;;3.08;0.40;;;;;;;;;;5032327;28;20071;-96
2023/12/31 12:00:39;;;;;;;4.88;0.50;;;;;;;;;;5037433;28;20025;-95
2023/12/31 12:03:07;;;;;;;2.70;0.40;;;;;;;;;;5032201;28;20383;-96
2023/12/31 12:05:33;;;;;;;6.05;0.50;;;;;;;;;;5029022;28;20049;-95
2023/12/31 12:07:59;;;;;;;2.53;0.30;;;;;;;;;;5030148;28;20061;-95
2023/12/31 12:10:24;;;;;;;2.45;0.60;;;;;;;;;;5030509;28;20021;-95
2023/12/31 12:12:53;;;;;;;2.47;0.40;;;;;;;;;;5032551;28;20041;-96
2023/12/31 12:15:19;;;;;;;4.20;0.60;;;;;;;;;;5031078;28;20029;-94
2023/12/31 12:17:44;;;;;;;0.85;0.40;;;;;;;;;;5032060;28;20043;-94
2023/12/31 12:20:10;;;;;;;0.90;0.40;;;;;;;;;;5031597;28;20025;-95
2023/12/31 12:22:35;;;;;;;0.88;0.50;;;;;;;;;;5032645;28;20032;-95
2023/12/31 12:25:01;;;;;;;2.72;0.57;;;;;;;;;;5031934;28;20029;-96
2023/12/31 12:27:26;;;;;;;2.83;0.40;;;;;;;;;;5029519;28;20044;-96
2023/12/31 12:29:52;;;;;;;3.08;0.50;;;;;;;;;;5030782;28;20033;-96
2023/12/31 12:32:17;;;;;;;1.88;0.40;;;;;;;;;;5025968;28;20029;-95
2023/12/31 12:34:47;;;;;;;4.10;0.45;;;;;;;;;;5029701;28;20458;-94
2023/12/31 12:37:12;;;;;;;4.70;0.70;;;;;;;;;;5025065;28;20025;-95
2023/12/31 12:39:38;;;;;;;2.95;0.50;;;;;;;;;;5031357;28;20029;-95
2023/12/31 12:42:03;;;;;;;4.35;0.77;;;;;;;;;;5031152;28;20032;-95
2023/12/31 12:44:29;;;;;;;3.03;0.73;;;;;;;;;;5030382;28;20036;-96
2023/12/31 12:46:54;;;;;;;2.13;0.43;;;;;;;;;;5030146;28;20025;-95
2023/12/31 12:49:20;;;;;;;3.85;0.57;;;;;;;;;;5028129;28;20494;-95
2023/12/31 12:51:46;;;;;;;3.50;0.43;;;;;;;;;;5030529;28;20025;-96
2023/12/31 12:54:11;;;;;;;1.88;0.70;;;;;;;;;;5022631;28;20355;-95
2023/12/31 12:56:36;;;;;;;2.42;0.70;;;;;;;;;;5027888;28;20455;-95
2023/12/31 12:59:03;;;;;;;2.92;0.40;;;;;;;;;;5032045;28;20584;-95
2023/12/31 13:01:29;;;;;;;3.08;0.50;;;;;;;;;;5030554;28;20034;-94
2023/12/31 13:03:54;;;;;;;0.52;0.30;;;;;;;;;;5031458;28;20037;-95
2023/12/31 13:06:20;;;;;;;3.83;0.40;;;;;;;;;;5030467;28;20025;-95
2023/12/31 13:08:45;;;;;;;2.53;0.57;;;;;;;;;;5029706;28;20120;-95
2023/12/31 13:11:11;;;;;;;1.70;0.40;;;;;;;;;;5031473;28;20142;-95
2023/12/31 13:13:37;;;;;;;2.90;0.60;;;;;;;;;;5030464;28;20028;-95
2023/12/31 13:16:02;;;;;;;3.42;0.90;;;;;;;;;;5026880;28;20029;-96
2023/12/31 13:18:27;;;;;;;1.63;0.50;;;;;;;;;;5034726;28;20025;-94
2023/12/31 13:20:54;;;;;;;4.10;0.50;;;;;;;;;;5031640;28;20032;-94
2023/12/31 13:23:20;;;;;;;1.27;0.40;;;;;;;;;;5032989;28;20028;-95
2023/12/31 13:25:45;;;;;;;4.20;0.50;;;;;;;;;;5024930;28;20383;-96
2023/12/31 13:28:10;;;;;;;2.53;0.45;;;;;;;;;;5030278;28;20478;-95
2023/12/31 13:30:36;;;;;;;4.30;0.40;;;;;;;;;;5029846;28;20028;-95
2023/12/31 13:33:05;;;;;;;3.28;0.88;;;;;;;;;;5031254;28;20057;-95
2023/12/31 13:35:31;;;;;;;0.85;0.35;;;;;;;;;;5042388;28;20120;-96
2023/12/31 13:37:59;;;;;;;2.05;0.47;;;;;;;;;;5031307;28;20473;-95
2023/12/31 13:40:24;;;;;;;3.03;0.60;;;;;;;;;;5038654;28;20032;-94
2023/12/31 13:42:49;;;;;;;2.72;0.68;;;;;;;;;;5032740;28;20029;-95
2023/12/31 13:45:14;;;;;;;3.33;0.68;;;;;;;;;;5030819;28;20017;-95
2023/12/31 13:47:40;;;;;;;3.83;0.82;;;;;;;;;;5031033;28;20026;-95
2023/12/31 13:50:05;;;;;;;3.97;0.50;;;;;;;;;;5030562;28;20025;-96
2023/12/31 13:52:33;;;;;;;1.10;0.50;;;;;;;;;;5030967;28;20128;-96
2023/12/31 13:54:58;;;;;;;4.30;0.60;;;;;;;;;;5031016;28;20025;-95
2023/12/31 13:57:24;;;;;;;4.95;0.85;;;;;;;;;;5030659;28;20013;-96
2023/12/31 13:59:50;;;;;;;3.08;0.77;;;;;;;;;;5029327;28;20425;-94
2023/12/31 14:02:16;;;;;;;7.55;0.80;;;;;;;;;;5031421;28;20032;-94
2023/12/31 14:04:42;;;;;;;6.57;0.73;;;;;;;;;;5031910;28;20115;-95
2023/12/31 14:07:07;;;;;;;7.63;1.08;;;;;;;;;;5030888;28;20039;-95
2023/12/31 14:09:35;;;;;;;4.63;0.73;;;;;;;;;;5030616;28;20022;-95
2023/12/31 14:12:01;;;;;;;4.15;0.93;;;;;;;;;;5022604;28;20022;-95
2023/12/31 14:14:26;;;;;;;5.75;0.70;;;;;;;;;;5026127;28;20043;-95
2023/12/31 14:16:54;;;;;;;8.48;1.30;;;;;;;;;;5030094;28;20026;-94
2023/12/31 14:19:19;;;;;;;10.48;1.38;;;;;;;;;;5036585;28;20022;-95
2023/12/31 14:21:44;;;;;;;9.18;0.80;;;;;;;;;;5030239;28;20116;-95
2023/12/31 14:24:10;;;;;;;4.97;0.70;;;;;;;;;;5030059;28;20021;-96
2023/12/31 14:26:35;;;;;;;14.45;0.90;;;;;;;;;;5029490;28;20072;-95
2023/12/31 14:29:01;;;;;;;12.75;0.93;;;;;;;;;;5029870;28;20044;-96
2023/12/31 14:31:27;;;;;;;10.80;1.00;;;;;;;;;;5028520;28;20151;-95
2023/12/31 14:33:55;;;;;;;5.25;0.80;;;;;;;;;;5027627;28;20043;-95